sensor_id;sensor_type;location;lat;lon;timestamp;P1;durP1;ratioP1;P2;durP2;ratioP2
7557;SDS011;3820;51.098;13.716;2022-07-06T00:00:50;1.13;;;0.90;;
7557;SDS011;3820;51.098;13.716;2022-07-06T00:03:17;3.45;;;1.55;;
7557;SDS011;3820;51.098;13.716;2022-07-06T00:05:44;1.23;;;1.13;;
7557;SDS011;3820;51.098;13.716;2022-07-06T00:08:10;0.82;;;0.82;;
7557;SDS011;3820;51.098;13.716;2022-07-06T00:10:38;2.20;;;1.35;;
7557;SDS011;3820;51.098;13.716;2022-07-06T00:13:04;0.70;;;0.68;;
7557;SDS011;3820;51.098;13.716;2022-07-06T00:15:31;0.90;;;0.88;;
7557;SDS011;3820;51.098;13.716;2022-07-06T00:17:57;2.10;;;0.93;;
7557;SDS011;3820;51.098;13.716;2022-07-06T00:20:24;0.57;;;0.50;;
7557;SDS011;3820;51.098;13.716;2022-07-06T00:22:50;0.75;;;0.75;;
7557;SDS011;3820;51.098;13.716;2022-07-06T00:25:17;0.85;;;0.80;;
7557;SDS011;3820;51.098;13.716;2022-07-06T00:27:44;0.82;;;0.82;;
7557;SDS011;3820;51.098;13.716;2022-07-06T00:30:10;6.03;;;1.73;;
7557;SDS011;3820;51.098;13.716;2022-07-06T00:32:37;1.85;;;0.90;;
7557;SDS011;3820;51.098;13.716;2022-07-06T00:35:03;1.75;;;0.75;;
7557;SDS011;3820;51.098;13.716;2022-07-06T00:37:31;1.20;;;1.10;;
7557;SDS011;3820;51.098;13.716;2022-07-06T00:39:57;1.00;;;0.88;;
7557;SDS011;3820;51.098;13.716;2022-07-06T00:42:24;1.40;;;1.00;;
7557;SDS011;3820;51.098;13.716;2022-07-06T00:44:50;0.60;;;0.60;;
7557;SDS011;3820;51.098;13.716;2022-07-06T00:47:17;1.58;;;1.30;;
7557;SDS011;3820;51.098;13.716;2022-07-06T00:49:43;1.05;;;0.90;;
7557;SDS011;3820;51.098;13.716;2022-07-06T00:52:29;1.23;;;0.80;;
7557;SDS011;3820;51.098;13.716;2022-07-06T00:54:55;0.75;;;0.75;;
7557;SDS011;3820;51.098;13.716;2022-07-06T00:57:22;0.68;;;0.68;;
7557;SDS011;3820;51.098;13.716;2022-07-06T00:59:49;1.70;;;1.00;;
7557;SDS011;3820;51.098;13.716;2022-07-06T01:02:15;0.98;;;0.98;;
7557;SDS011;3820;51.098;13.716;2022-07-06T01:04:42;0.88;;;0.88;;
7557;SDS011;3820;51.098;13.716;2022-07-06T01:07:09;0.70;;;0.65;;
7557;SDS011;3820;51.098;13.716;2022-07-06T01:09:35;1.15;;;1.05;;
7557;SDS011;3820;51.098;13.716;2022-07-06T01:12:03;0.70;;;0.65;;
7557;SDS011;3820;51.098;13.716;2022-07-06T01:14:30;0.73;;;0.73;;
7557;SDS011;3820;51.098;13.716;2022-07-06T01:16:57;0.90;;;0.90;;
7557;SDS011;3820;51.098;13.716;2022-07-06T01:19:24;0.75;;;0.75;;
7557;SDS011;3820;51.098;13.716;2022-07-06T01:21:51;0.70;;;0.68;;
7557;SDS011;3820;51.098;13.716;2022-07-06T01:24:18;1.00;;;0.98;;
7557;SDS011;3820;51.098;13.716;2022-07-06T01:26:45;1.08;;;0.90;;
7557;SDS011;3820;51.098;13.716;2022-07-06T01:29:12;1.77;;;1.45;;
7557;SDS011;3820;51.098;13.716;2022-07-06T01:31:46;0.93;;;0.60;;
7557;SDS011;3820;51.098;13.716;2022-07-06T01:34:18;1.38;;;1.00;;
7557;SDS011;3820;51.098;13.716;2022-07-06T01:36:45;1.13;;;0.98;;
7557;SDS011;3820;51.098;13.716;2022-07-06T01:39:12;1.08;;;0.90;;
7557;SDS011;3820;51.098;13.716;2022-07-06T01:41:39;1.45;;;1.30;;
7557;SDS011;3820;51.098;13.716;2022-07-06T01:44:05;0.90;;;0.65;;
7557;SDS011;3820;51.098;13.716;2022-07-06T01:46:32;3.15;;;1.30;;
7557;SDS011;3820;51.098;13.716;2022-07-06T01:48:59;0.55;;;0.55;;
7557;SDS011;3820;51.098;13.716;2022-07-06T01:51:26;0.95;;;0.85;;
7557;SDS011;3820;51.098;13.716;2022-07-06T01:53:53;1.17;;;1.08;;
7557;SDS011;3820;51.098;13.716;2022-07-06T01:56:19;1.02;;;0.82;;
7557;SDS011;3820;51.098;13.716;2022-07-06T01:58:46;0.90;;;0.90;;
7557;SDS011;3820;51.098;13.716;2022-07-06T02:01:14;0.68;;;0.68;;
7557;SDS011;3820;51.098;13.716;2022-07-06T02:03:42;4.53;;;0.90;;
7557;SDS011;3820;51.098;13.716;2022-07-06T02:06:09;0.85;;;0.80;;
7557;SDS011;3820;51.098;13.716;2022-07-06T02:08:38;0.90;;;0.90;;
7557;SDS011;3820;51.098;13.716;2022-07-06T02:11:05;0.70;;;0.70;;
7557;SDS011;3820;51.098;13.716;2022-07-06T02:13:33;0.63;;;0.60;;
7557;SDS011;3820;51.098;13.716;2022-07-06T02:15:59;0.90;;;0.75;;
7557;SDS011;3820;51.098;13.716;2022-07-06T02:18:26;0.70;;;0.70;;
7557;SDS011;3820;51.098;13.716;2022-07-06T02:20:53;0.60;;;0.60;;
7557;SDS011;3820;51.098;13.716;2022-07-06T02:23:20;1.15;;;0.98;;
7557;SDS011;3820;51.098;13.716;2022-07-06T02:25:47;0.90;;;0.90;;
7557;SDS011;3820;51.098;13.716;2022-07-06T02:28:13;0.52;;;0.52;;
7557;SDS011;3820;51.098;13.716;2022-07-06T02:30:40;0.70;;;0.63;;
7557;SDS011;3820;51.098;13.716;2022-07-06T02:33:06;0.90;;;0.90;;
7557;SDS011;3820;51.098;13.716;2022-07-06T02:35:33;1.70;;;0.93;;
7557;SDS011;3820;51.098;13.716;2022-07-06T02:37:59;0.73;;;0.63;;
7557;SDS011;3820;51.098;13.716;2022-07-06T02:40:26;0.70;;;0.70;;
7557;SDS011;3820;51.098;13.716;2022-07-06T02:42:52;2.35;;;1.25;;
7557;SDS011;3820;51.098;13.716;2022-07-06T02:45:19;0.40;;;0.40;;
7557;SDS011;3820;51.098;13.716;2022-07-06T02:47:45;0.50;;;0.50;;
7557;SDS011;3820;51.098;13.716;2022-07-06T02:50:12;0.73;;;0.50;;
7557;SDS011;3820;51.098;13.716;2022-07-06T02:52:39;0.68;;;0.63;;
7557;SDS011;3820;51.098;13.716;2022-07-06T02:55:07;1.63;;;0.70;;
7557;SDS011;3820;51.098;13.716;2022-07-06T02:57:33;0.55;;;0.55;;
7557;SDS011;3820;51.098;13.716;2022-07-06T03:00:00;0.75;;;0.75;;
7557;SDS011;3820;51.098;13.716;2022-07-06T03:02:26;0.90;;;0.90;;
7557;SDS011;3820;51.098;13.716;2022-07-06T03:04:53;1.13;;;1.00;;
7557;SDS011;3820;51.098;13.716;2022-07-06T03:07:19;0.85;;;0.63;;
7557;SDS011;3820;51.098;13.716;2022-07-06T03:09:46;1.65;;;1.20;;
7557;SDS011;3820;51.098;13.716;2022-07-06T03:12:12;0.65;;;0.65;;
7557;SDS011;3820;51.098;13.716;2022-07-06T03:14:39;0.95;;;0.95;;
7557;SDS011;3820;51.098;13.716;2022-07-06T03:17:05;1.30;;;1.20;;
7557;SDS011;3820;51.098;13.716;2022-07-06T03:19:32;0.95;;;0.95;;
7557;SDS011;3820;51.098;13.716;2022-07-06T03:21:59;1.52;;;1.38;;
7557;SDS011;3820;51.098;13.716;2022-07-06T03:24:25;0.80;;;0.80;;
7557;SDS011;3820;51.098;13.716;2022-07-06T03:26:52;1.63;;;1.17;;
7557;SDS011;3820;51.098;13.716;2022-07-06T03:29:18;1.95;;;0.70;;
7557;SDS011;3820;51.098;13.716;2022-07-06T03:31:48;1.13;;;0.80;;
7557;SDS011;3820;51.098;13.716;2022-07-06T03:34:17;1.30;;;1.00;;
7557;SDS011;3820;51.098;13.716;2022-07-06T03:36:43;0.77;;;0.77;;
7557;SDS011;3820;51.098;13.716;2022-07-06T03:39:09;0.75;;;0.75;;
7557;SDS011;3820;51.098;13.716;2022-07-06T03:41:36;1.20;;;0.85;;
7557;SDS011;3820;51.098;13.716;2022-07-06T03:44:03;1.52;;;1.10;;
7557;SDS011;3820;51.098;13.716;2022-07-06T03:46:29;1.10;;;1.00;;
7557;SDS011;3820;51.098;13.716;2022-07-06T03:48:56;1.05;;;1.05;;
7557;SDS011;3820;51.098;13.716;2022-07-06T03:51:22;0.82;;;0.82;;
7557;SDS011;3820;51.098;13.716;2022-07-06T03:53:49;0.95;;;0.95;;
7557;SDS011;3820;51.098;13.716;2022-07-06T03:56:15;3.13;;;1.45;;
7557;SDS011;3820;51.098;13.716;2022-07-06T03:58:55;1.63;;;1.52;;
7557;SDS011;3820;51.098;13.716;2022-07-06T04:01:22;1.80;;;1.35;;
7557;SDS011;3820;51.098;13.716;2022-07-06T04:03:49;1.92;;;1.73;;
7557;SDS011;3820;51.098;13.716;2022-07-06T04:06:16;1.08;;;0.90;;
7557;SDS011;3820;51.098;13.716;2022-07-06T04:08:42;2.53;;;1.90;;
7557;SDS011;3820;51.098;13.716;2022-07-06T04:11:09;1.20;;;1.10;;
7557;SDS011;3820;51.098;13.716;2022-07-06T04:13:35;1.50;;;1.40;;
7557;SDS011;3820;51.098;13.716;2022-07-06T04:16:03;1.90;;;1.67;;
7557;SDS011;3820;51.098;13.716;2022-07-06T04:18:29;2.08;;;1.77;;
7557;SDS011;3820;51.098;13.716;2022-07-06T04:20:56;4.03;;;2.03;;
7557;SDS011;3820;51.098;13.716;2022-07-06T04:23:23;1.27;;;1.05;;
7557;SDS011;3820;51.098;13.716;2022-07-06T04:25:50;2.58;;;1.70;;
7557;SDS011;3820;51.098;13.716;2022-07-06T04:28:16;1.48;;;1.35;;
7557;SDS011;3820;51.098;13.716;2022-07-06T04:30:43;1.40;;;1.30;;
7557;SDS011;3820;51.098;13.716;2022-07-06T04:33:10;1.20;;;1.10;;
7557;SDS011;3820;51.098;13.716;2022-07-06T04:35:36;1.38;;;1.25;;
7557;SDS011;3820;51.098;13.716;2022-07-06T04:38:03;1.73;;;1.30;;
7557;SDS011;3820;51.098;13.716;2022-07-06T04:40:29;1.38;;;1.05;;
7557;SDS011;3820;51.098;13.716;2022-07-06T04:42:56;2.95;;;1.30;;
7557;SDS011;3820;51.098;13.716;2022-07-06T04:45:22;2.38;;;1.38;;
7557;SDS011;3820;51.098;13.716;2022-07-06T04:47:49;2.13;;;1.00;;
7557;SDS011;3820;51.098;13.716;2022-07-06T04:50:16;1.20;;;1.10;;
7557;SDS011;3820;51.098;13.716;2022-07-06T04:52:42;1.40;;;1.13;;
7557;SDS011;3820;51.098;13.716;2022-07-06T04:55:09;0.88;;;0.80;;
7557;SDS011;3820;51.098;13.716;2022-07-06T04:57:36;1.52;;;1.30;;
7557;SDS011;3820;51.098;13.716;2022-07-06T05:00:07;1.60;;;1.50;;
7557;SDS011;3820;51.098;13.716;2022-07-06T05:02:34;1.55;;;1.00;;
7557;SDS011;3820;51.098;13.716;2022-07-06T05:05:01;1.42;;;1.10;;
7557;SDS011;3820;51.098;13.716;2022-07-06T05:07:31;1.27;;;1.17;;
7557;SDS011;3820;51.098;13.716;2022-07-06T05:10:00;1.42;;;1.33;;
7557;SDS011;3820;51.098;13.716;2022-07-06T05:12:27;1.52;;;1.38;;
7557;SDS011;3820;51.098;13.716;2022-07-06T05:14:53;1.17;;;1.08;;
7557;SDS011;3820;51.098;13.716;2022-07-06T05:17:20;1.33;;;1.23;;
7557;SDS011;3820;51.098;13.716;2022-07-06T05:19:54;1.63;;;1.52;;
7557;SDS011;3820;51.098;13.716;2022-07-06T05:22:21;1.58;;;1.33;;
7557;SDS011;3820;51.098;13.716;2022-07-06T05:24:47;1.30;;;1.20;;
7557;SDS011;3820;51.098;13.716;2022-07-06T05:27:14;2.10;;;1.55;;
7557;SDS011;3820;51.098;13.716;2022-07-06T05:29:40;1.65;;;1.55;;
7557;SDS011;3820;51.098;13.716;2022-07-06T05:32:07;2.10;;;1.08;;
7557;SDS011;3820;51.098;13.716;2022-07-06T05:34:33;1.50;;;1.20;;
7557;SDS011;3820;51.098;13.716;2022-07-06T05:37:01;1.60;;;0.95;;
7557;SDS011;3820;51.098;13.716;2022-07-06T05:39:28;0.70;;;0.70;;
7557;SDS011;3820;51.098;13.716;2022-07-06T05:41:55;1.40;;;1.00;;
7557;SDS011;3820;51.098;13.716;2022-07-06T05:44:21;0.77;;;0.77;;
7557;SDS011;3820;51.098;13.716;2022-07-06T05:46:48;1.27;;;1.23;;
7557;SDS011;3820;51.098;13.716;2022-07-06T05:49:14;1.45;;;1.00;;
7557;SDS011;3820;51.098;13.716;2022-07-06T05:51:59;1.48;;;1.27;;
7557;SDS011;3820;51.098;13.716;2022-07-06T05:54:26;3.20;;;1.77;;
7557;SDS011;3820;51.098;13.716;2022-07-06T05:56:52;0.80;;;0.80;;
7557;SDS011;3820;51.098;13.716;2022-07-06T05:59:19;1.40;;;1.30;;
7557;SDS011;3820;51.098;13.716;2022-07-06T06:01:45;0.50;;;0.50;;
7557;SDS011;3820;51.098;13.716;2022-07-06T06:04:12;1.30;;;1.20;;
7557;SDS011;3820;51.098;13.716;2022-07-06T06:06:38;0.82;;;0.82;;
7557;SDS011;3820;51.098;13.716;2022-07-06T06:09:05;0.70;;;0.70;;
7557;SDS011;3820;51.098;13.716;2022-07-06T06:11:31;0.68;;;0.52;;
7557;SDS011;3820;51.098;13.716;2022-07-06T06:13:58;0.60;;;0.60;;
7557;SDS011;3820;51.098;13.716;2022-07-06T06:16:24;0.63;;;0.57;;
7557;SDS011;3820;51.098;13.716;2022-07-06T06:18:51;0.88;;;0.70;;
7557;SDS011;3820;51.098;13.716;2022-07-06T06:21:17;0.73;;;0.60;;
7557;SDS011;3820;51.098;13.716;2022-07-06T06:23:44;1.92;;;0.85;;
7557;SDS011;3820;51.098;13.716;2022-07-06T06:26:10;26.20;;;1.40;;
7557;SDS011;3820;51.098;13.716;2022-07-06T06:28:37;0.73;;;0.73;;
7557;SDS011;3820;51.098;13.716;2022-07-06T06:31:04;0.57;;;0.55;;
7557;SDS011;3820;51.098;13.716;2022-07-06T06:33:30;0.60;;;0.50;;
7557;SDS011;3820;51.098;13.716;2022-07-06T06:35:57;0.98;;;0.60;;
7557;SDS011;3820;51.098;13.716;2022-07-06T06:38:23;3.17;;;0.75;;
7557;SDS011;3820;51.098;13.716;2022-07-06T06:40:55;0.63;;;0.60;;
7557;SDS011;3820;51.098;13.716;2022-07-06T06:43:21;0.95;;;0.70;;
7557;SDS011;3820;51.098;13.716;2022-07-06T06:45:48;0.80;;;0.63;;
7557;SDS011;3820;51.098;13.716;2022-07-06T06:48:15;1.00;;;0.50;;
7557;SDS011;3820;51.098;13.716;2022-07-06T06:50:43;0.75;;;0.57;;
7557;SDS011;3820;51.098;13.716;2022-07-06T06:53:10;0.50;;;0.50;;
7557;SDS011;3820;51.098;13.716;2022-07-06T06:55:36;0.57;;;0.52;;
7557;SDS011;3820;51.098;13.716;2022-07-06T06:58:03;0.60;;;0.52;;
7557;SDS011;3820;51.098;13.716;2022-07-06T07:00:33;0.50;;;0.50;;
7557;SDS011;3820;51.098;13.716;2022-07-06T07:02:59;0.40;;;0.40;;
7557;SDS011;3820;51.098;13.716;2022-07-06T07:05:26;2.13;;;1.23;;
7557;SDS011;3820;51.098;13.716;2022-07-06T07:07:52;0.60;;;0.60;;
7557;SDS011;3820;51.098;13.716;2022-07-06T07:10:29;0.80;;;0.50;;
7557;SDS011;3820;51.098;13.716;2022-07-06T07:12:55;0.57;;;0.40;;
7557;SDS011;3820;51.098;13.716;2022-07-06T07:15:22;0.40;;;0.40;;
7557;SDS011;3820;51.098;13.716;2022-07-06T07:17:48;0.38;;;0.30;;
7557;SDS011;3820;51.098;13.716;2022-07-06T07:20:15;0.82;;;0.70;;
7557;SDS011;3820;51.098;13.716;2022-07-06T07:22:41;0.88;;;0.85;;
7557;SDS011;3820;51.098;13.716;2022-07-06T07:25:09;1.00;;;0.55;;
7557;SDS011;3820;51.098;13.716;2022-07-06T07:27:36;0.77;;;0.45;;
7557;SDS011;3820;51.098;13.716;2022-07-06T07:30:02;0.85;;;0.50;;
7557;SDS011;3820;51.098;13.716;2022-07-06T07:32:30;0.93;;;0.50;;
7557;SDS011;3820;51.098;13.716;2022-07-06T07:34:56;0.40;;;0.40;;
7557;SDS011;3820;51.098;13.716;2022-07-06T07:37:23;1.27;;;0.40;;
7557;SDS011;3820;51.098;13.716;2022-07-06T07:39:49;0.30;;;0.30;;
7557;SDS011;3820;51.098;13.716;2022-07-06T07:42:16;0.80;;;0.60;;
7557;SDS011;3820;51.098;13.716;2022-07-06T07:44:43;0.50;;;0.40;;
7557;SDS011;3820;51.098;13.716;2022-07-06T07:47:10;0.65;;;0.40;;
7557;SDS011;3820;51.098;13.716;2022-07-06T07:49:36;0.50;;;0.50;;
7557;SDS011;3820;51.098;13.716;2022-07-06T07:52:03;0.47;;;0.38;;
7557;SDS011;3820;51.098;13.716;2022-07-06T07:54:30;0.43;;;0.38;;
7557;SDS011;3820;51.098;13.716;2022-07-06T07:56:56;0.35;;;0.30;;
7557;SDS011;3820;51.098;13.716;2022-07-06T07:59:23;0.70;;;0.70;;
7557;SDS011;3820;51.098;13.716;2022-07-06T08:01:50;25.17;;;1.60;;
7557;SDS011;3820;51.098;13.716;2022-07-06T08:04:17;0.50;;;0.50;;
7557;SDS011;3820;51.098;13.716;2022-07-06T08:06:44;0.45;;;0.38;;
7557;SDS011;3820;51.098;13.716;2022-07-06T08:09:10;0.35;;;0.20;;
7557;SDS011;3820;51.098;13.716;2022-07-06T08:11:37;0.47;;;0.40;;
7557;SDS011;3820;51.098;13.716;2022-07-06T08:14:03;0.38;;;0.38;;
7557;SDS011;3820;51.098;13.716;2022-07-06T08:16:30;0.40;;;0.40;;
7557;SDS011;3820;51.098;13.716;2022-07-06T08:18:56;0.52;;;0.40;;
7557;SDS011;3820;51.098;13.716;2022-07-06T08:21:23;0.60;;;0.60;;
7557;SDS011;3820;51.098;13.716;2022-07-06T08:23:52;0.40;;;0.32;;
7557;SDS011;3820;51.098;13.716;2022-07-06T08:26:20;3.08;;;1.40;;
7557;SDS011;3820;51.098;13.716;2022-07-06T08:28:46;2.53;;;0.40;;
7557;SDS011;3820;51.098;13.716;2022-07-06T08:31:13;0.20;;;0.20;;
7557;SDS011;3820;51.098;13.716;2022-07-06T08:34:00;0.98;;;0.85;;
7557;SDS011;3820;51.098;13.716;2022-07-06T08:36:27;0.60;;;0.55;;
7557;SDS011;3820;51.098;13.716;2022-07-06T08:38:53;0.50;;;0.40;;
7557;SDS011;3820;51.098;13.716;2022-07-06T08:41:24;0.57;;;0.30;;
7557;SDS011;3820;51.098;13.716;2022-07-06T08:43:52;0.88;;;0.65;;
7557;SDS011;3820;51.098;13.716;2022-07-06T08:46:19;0.40;;;0.40;;
7557;SDS011;3820;51.098;13.716;2022-07-06T08:48:47;0.20;;;0.20;;
7557;SDS011;3820;51.098;13.716;2022-07-06T08:51:14;0.90;;;0.50;;
7557;SDS011;3820;51.098;13.716;2022-07-06T08:53:41;0.28;;;0.28;;
7557;SDS011;3820;51.098;13.716;2022-07-06T08:56:08;0.60;;;0.50;;
7557;SDS011;3820;51.098;13.716;2022-07-06T08:58:35;0.47;;;0.47;;
7557;SDS011;3820;51.098;13.716;2022-07-06T09:01:02;0.47;;;0.40;;
7557;SDS011;3820;51.098;13.716;2022-07-06T09:03:29;0.25;;;0.25;;
7557;SDS011;3820;51.098;13.716;2022-07-06T09:05:57;0.40;;;0.30;;
7557;SDS011;3820;51.098;13.716;2022-07-06T09:08:26;0.22;;;0.20;;
7557;SDS011;3820;51.098;13.716;2022-07-06T09:10:53;0.63;;;0.57;;
7557;SDS011;3820;51.098;13.716;2022-07-06T09:13:20;0.63;;;0.50;;
7557;SDS011;3820;51.098;13.716;2022-07-06T09:15:47;2.20;;;0.43;;
7557;SDS011;3820;51.098;13.716;2022-07-06T09:18:13;0.57;;;0.55;;
7557;SDS011;3820;51.098;13.716;2022-07-06T09:20:41;0.47;;;0.47;;
7557;SDS011;3820;51.098;13.716;2022-07-06T09:23:08;0.63;;;0.40;;
7557;SDS011;3820;51.098;13.716;2022-07-06T09:25:41;0.43;;;0.30;;
7557;SDS011;3820;51.098;13.716;2022-07-06T09:28:08;0.45;;;0.30;;
7557;SDS011;3820;51.098;13.716;2022-07-06T09:30:34;0.20;;;0.20;;
7557;SDS011;3820;51.098;13.716;2022-07-06T09:33:06;0.70;;;0.43;;
7557;SDS011;3820;51.098;13.716;2022-07-06T09:35:37;0.40;;;0.40;;
7557;SDS011;3820;51.098;13.716;2022-07-06T09:38:09;0.40;;;0.40;;
7557;SDS011;3820;51.098;13.716;2022-07-06T09:40:40;0.60;;;0.30;;
7557;SDS011;3820;51.098;13.716;2022-07-06T09:46:02;0.38;;;0.38;;
7557;SDS011;3820;51.098;13.716;2022-07-06T09:48:27;0.40;;;0.40;;
7557;SDS011;3820;51.098;13.716;2022-07-06T09:53:26;0.30;;;0.30;;
7557;SDS011;3820;51.098;13.716;2022-07-06T09:55:53;0.30;;;0.30;;
7557;SDS011;3820;51.098;13.716;2022-07-06T09:58:21;0.35;;;0.30;;
7557;SDS011;3820;51.098;13.716;2022-07-06T10:01:08;0.55;;;0.50;;
7557;SDS011;3820;51.098;13.716;2022-07-06T10:03:35;0.73;;;0.50;;
7557;SDS011;3820;51.098;13.716;2022-07-06T10:06:02;0.95;;;0.55;;
7557;SDS011;3820;51.098;13.716;2022-07-06T10:08:29;1.02;;;0.47;;
7557;SDS011;3820;51.098;13.716;2022-07-06T10:10:56;0.50;;;0.50;;
7557;SDS011;3820;51.098;13.716;2022-07-06T10:13:22;0.55;;;0.40;;
7557;SDS011;3820;51.098;13.716;2022-07-06T10:15:50;0.35;;;0.32;;
7557;SDS011;3820;51.098;13.716;2022-07-06T10:18:17;0.60;;;0.40;;
7557;SDS011;3820;51.098;13.716;2022-07-06T10:20:44;2.08;;;0.47;;
7557;SDS011;3820;51.098;13.716;2022-07-06T10:23:10;0.47;;;0.40;;
7557;SDS011;3820;51.098;13.716;2022-07-06T10:25:37;1.17;;;0.50;;
7557;SDS011;3820;51.098;13.716;2022-07-06T10:28:05;0.82;;;0.50;;
7557;SDS011;3820;51.098;13.716;2022-07-06T10:30:40;0.38;;;0.38;;
7557;SDS011;3820;51.098;13.716;2022-07-06T10:33:08;2.75;;;1.15;;
7557;SDS011;3820;51.098;13.716;2022-07-06T10:35:35;1.25;;;0.40;;
7557;SDS011;3820;51.098;13.716;2022-07-06T10:38:06;0.75;;;0.60;;
7557;SDS011;3820;51.098;13.716;2022-07-06T10:40:34;0.63;;;0.60;;
7557;SDS011;3820;51.098;13.716;2022-07-06T10:43:20;0.30;;;0.30;;
7557;SDS011;3820;51.098;13.716;2022-07-06T10:45:49;1.05;;;0.65;;
7557;SDS011;3820;51.098;13.716;2022-07-06T10:48:16;0.93;;;0.38;;
7557;SDS011;3820;51.098;13.716;2022-07-06T10:53:11;0.30;;;0.30;;
7557;SDS011;3820;51.098;13.716;2022-07-06T10:55:39;1.27;;;0.95;;
7557;SDS011;3820;51.098;13.716;2022-07-06T10:58:07;0.30;;;0.30;;
7557;SDS011;3820;51.098;13.716;2022-07-06T11:00:49;0.80;;;0.63;;
7557;SDS011;3820;51.098;13.716;2022-07-06T11:06:16;2.65;;;0.40;;
7557;SDS011;3820;51.098;13.716;2022-07-06T11:13:49;0.30;;;0.30;;
7557;SDS011;3820;51.098;13.716;2022-07-06T11:16:18;0.52;;;0.50;;
7557;SDS011;3820;51.098;13.716;2022-07-06T11:18:46;0.45;;;0.43;;
7557;SDS011;3820;51.098;13.716;2022-07-06T11:24:21;0.50;;;0.50;;
7557;SDS011;3820;51.098;13.716;2022-07-06T11:26:50;0.52;;;0.52;;
7557;SDS011;3820;51.098;13.716;2022-07-06T11:29:18;0.40;;;0.40;;
7557;SDS011;3820;51.098;13.716;2022-07-06T11:31:52;0.73;;;0.50;;
7557;SDS011;3820;51.098;13.716;2022-07-06T11:36:48;1.27;;;0.50;;
7557;SDS011;3820;51.098;13.716;2022-07-06T11:39:15;0.88;;;0.60;;
7557;SDS011;3820;51.098;13.716;2022-07-06T11:41:42;0.57;;;0.43;;
7557;SDS011;3820;51.098;13.716;2022-07-06T11:44:16;0.50;;;0.50;;
7557;SDS011;3820;51.098;13.716;2022-07-06T11:46:43;1.63;;;0.90;;
7557;SDS011;3820;51.098;13.716;2022-07-06T11:49:09;0.38;;;0.38;;
7557;SDS011;3820;51.098;13.716;2022-07-06T11:51:37;1.13;;;0.28;;
7557;SDS011;3820;51.098;13.716;2022-07-06T11:54:12;0.40;;;0.40;;
7557;SDS011;3820;51.098;13.716;2022-07-06T11:56:50;0.85;;;0.50;;
7557;SDS011;3820;51.098;13.716;2022-07-06T11:59:24;1.38;;;0.73;;
7557;SDS011;3820;51.098;13.716;2022-07-06T12:02:05;0.38;;;0.38;;
7557;SDS011;3820;51.098;13.716;2022-07-06T12:04:33;0.38;;;0.38;;
7557;SDS011;3820;51.098;13.716;2022-07-06T12:07:02;0.43;;;0.43;;
7557;SDS011;3820;51.098;13.716;2022-07-06T12:09:38;0.95;;;0.50;;
7557;SDS011;3820;51.098;13.716;2022-07-06T12:12:06;0.60;;;0.60;;
7557;SDS011;3820;51.098;13.716;2022-07-06T12:14:35;0.65;;;0.50;;
7557;SDS011;3820;51.098;13.716;2022-07-06T12:17:04;0.43;;;0.43;;
7557;SDS011;3820;51.098;13.716;2022-07-06T12:19:34;1.42;;;0.40;;
7557;SDS011;3820;51.098;13.716;2022-07-06T12:22:01;0.73;;;0.32;;
7557;SDS011;3820;51.098;13.716;2022-07-06T12:24:29;0.60;;;0.40;;
7557;SDS011;3820;51.098;13.716;2022-07-06T12:26:58;8.55;;;0.63;;
7557;SDS011;3820;51.098;13.716;2022-07-06T12:29:25;0.32;;;0.32;;
7557;SDS011;3820;51.098;13.716;2022-07-06T12:31:55;0.47;;;0.40;;
7557;SDS011;3820;51.098;13.716;2022-07-06T12:34:23;0.40;;;0.40;;
7557;SDS011;3820;51.098;13.716;2022-07-06T12:36:51;0.93;;;0.57;;
7557;SDS011;3820;51.098;13.716;2022-07-06T12:39:20;1.05;;;0.63;;
7557;SDS011;3820;51.098;13.716;2022-07-06T12:41:52;0.90;;;0.70;;
7557;SDS011;3820;51.098;13.716;2022-07-06T12:44:23;0.55;;;0.40;;
7557;SDS011;3820;51.098;13.716;2022-07-06T12:47:00;0.32;;;0.25;;
7557;SDS011;3820;51.098;13.716;2022-07-06T12:49:31;1.52;;;0.70;;
7557;SDS011;3820;51.098;13.716;2022-07-06T12:51:59;0.25;;;0.25;;
7557;SDS011;3820;51.098;13.716;2022-07-06T12:57:22;0.43;;;0.43;;
7557;SDS011;3820;51.098;13.716;2022-07-06T13:02:21;0.40;;;0.40;;
7557;SDS011;3820;51.098;13.716;2022-07-06T13:05:11;1.08;;;0.95;;
7557;SDS011;3820;51.098;13.716;2022-07-06T13:07:43;0.95;;;0.50;;
7557;SDS011;3820;51.098;13.716;2022-07-06T13:10:12;1.55;;;0.80;;
7557;SDS011;3820;51.098;13.716;2022-07-06T13:12:39;0.35;;;0.35;;
7557;SDS011;3820;51.098;13.716;2022-07-06T13:15:07;0.25;;;0.25;;
7557;SDS011;3820;51.098;13.716;2022-07-06T13:17:34;0.38;;;0.38;;
7557;SDS011;3820;51.098;13.716;2022-07-06T13:20:04;0.40;;;0.40;;
7557;SDS011;3820;51.098;13.716;2022-07-06T13:22:34;0.30;;;0.30;;
7557;SDS011;3820;51.098;13.716;2022-07-06T13:25:01;1.95;;;0.40;;
7557;SDS011;3820;51.098;13.716;2022-07-06T13:27:28;0.30;;;0.30;;
7557;SDS011;3820;51.098;13.716;2022-07-06T13:29:54;0.35;;;0.35;;
7557;SDS011;3820;51.098;13.716;2022-07-06T13:32:21;1.15;;;0.80;;
7557;SDS011;3820;51.098;13.716;2022-07-06T13:34:48;0.52;;;0.50;;
7557;SDS011;3820;51.098;13.716;2022-07-06T13:37:20;0.40;;;0.40;;
7557;SDS011;3820;51.098;13.716;2022-07-06T13:39:53;0.30;;;0.30;;
7557;SDS011;3820;51.098;13.716;2022-07-06T13:42:26;0.60;;;0.60;;
7557;SDS011;3820;51.098;13.716;2022-07-06T13:44:54;1.17;;;0.60;;
7557;SDS011;3820;51.098;13.716;2022-07-06T13:47:21;1.13;;;0.63;;
7557;SDS011;3820;51.098;13.716;2022-07-06T13:49:48;1.85;;;0.47;;
7557;SDS011;3820;51.098;13.716;2022-07-06T13:52:16;0.95;;;0.38;;
7557;SDS011;3820;51.098;13.716;2022-07-06T13:54:43;0.55;;;0.50;;
7557;SDS011;3820;51.098;13.716;2022-07-06T13:57:10;0.50;;;0.50;;
7557;SDS011;3820;51.098;13.716;2022-07-06T13:59:36;0.40;;;0.40;;
7557;SDS011;3820;51.098;13.716;2022-07-06T14:02:06;0.38;;;0.38;;
7557;SDS011;3820;51.098;13.716;2022-07-06T14:04:34;0.57;;;0.55;;
7557;SDS011;3820;51.098;13.716;2022-07-06T14:07:01;0.47;;;0.47;;
7557;SDS011;3820;51.098;13.716;2022-07-06T14:09:28;1.10;;;0.90;;
7557;SDS011;3820;51.098;13.716;2022-07-06T14:11:55;1.35;;;0.75;;
7557;SDS011;3820;51.098;13.716;2022-07-06T14:14:22;0.52;;;0.35;;
7557;SDS011;3820;51.098;13.716;2022-07-06T14:16:49;0.50;;;0.50;;
7557;SDS011;3820;51.098;13.716;2022-07-06T14:19:15;0.60;;;0.40;;
7557;SDS011;3820;51.098;13.716;2022-07-06T14:21:46;0.40;;;0.40;;
7557;SDS011;3820;51.098;13.716;2022-07-06T14:24:13;0.30;;;0.30;;
7557;SDS011;3820;51.098;13.716;2022-07-06T14:26:40;0.35;;;0.35;;
7557;SDS011;3820;51.098;13.716;2022-07-06T14:29:06;0.60;;;0.50;;
7557;SDS011;3820;51.098;13.716;2022-07-06T14:31:33;0.55;;;0.45;;
7557;SDS011;3820;51.098;13.716;2022-07-06T14:34:00;0.93;;;0.63;;
7557;SDS011;3820;51.098;13.716;2022-07-06T14:36:26;1.98;;;0.47;;
7557;SDS011;3820;51.098;13.716;2022-07-06T14:38:52;0.35;;;0.35;;
7557;SDS011;3820;51.098;13.716;2022-07-06T14:41:19;0.50;;;0.50;;
7557;SDS011;3820;51.098;13.716;2022-07-06T14:43:45;0.52;;;0.43;;
7557;SDS011;3820;51.098;13.716;2022-07-06T14:46:12;0.30;;;0.30;;
7557;SDS011;3820;51.098;13.716;2022-07-06T14:48:39;0.60;;;0.47;;
7557;SDS011;3820;51.098;13.716;2022-07-06T14:51:06;0.30;;;0.30;;
7557;SDS011;3820;51.098;13.716;2022-07-06T14:53:32;0.47;;;0.40;;
7557;SDS011;3820;51.098;13.716;2022-07-06T14:55:59;2.30;;;0.63;;
7557;SDS011;3820;51.098;13.716;2022-07-06T14:58:26;0.30;;;0.30;;
7557;SDS011;3820;51.098;13.716;2022-07-06T15:00:53;0.30;;;0.30;;
7557;SDS011;3820;51.098;13.716;2022-07-06T15:03:24;0.30;;;0.30;;
7557;SDS011;3820;51.098;13.716;2022-07-06T15:05:56;0.20;;;0.20;;
7557;SDS011;3820;51.098;13.716;2022-07-06T15:08:23;7.13;;;1.20;;
7557;SDS011;3820;51.098;13.716;2022-07-06T15:10:50;0.60;;;0.60;;
7557;SDS011;3820;51.098;13.716;2022-07-06T15:13:17;0.28;;;0.28;;
7557;SDS011;3820;51.098;13.716;2022-07-06T15:15:43;0.30;;;0.30;;
7557;SDS011;3820;51.098;13.716;2022-07-06T15:18:26;0.30;;;0.28;;
7557;SDS011;3820;51.098;13.716;2022-07-06T15:20:53;0.40;;;0.40;;
7557;SDS011;3820;51.098;13.716;2022-07-06T15:23:19;0.82;;;0.30;;
7557;SDS011;3820;51.098;13.716;2022-07-06T15:25:46;0.35;;;0.35;;
7557;SDS011;3820;51.098;13.716;2022-07-06T15:28:24;0.40;;;0.40;;
7557;SDS011;3820;51.098;13.716;2022-07-06T15:30:54;0.80;;;0.60;;